createdAt,value
2023-12-21T00:01:41.934Z,5.97
2023-12-21T00:04:14.972Z,6.47
2023-12-21T00:06:47.679Z,3.43
2023-12-21T00:09:20.636Z,4.00
2023-12-21T00:11:54.672Z,2.93
2023-12-21T00:14:31.421Z,3.03
2023-12-21T00:17:04.247Z,5.60
2023-12-21T00:19:37.099Z,3.70
2023-12-21T00:22:09.861Z,3.67
2023-12-21T00:24:42.719Z,3.57
2023-12-21T00:27:15.363Z,3.47
2023-12-21T00:29:49.452Z,5.57
2023-12-21T00:32:22.106Z,4.30
2023-12-21T00:34:54.938Z,3.70
2023-12-21T00:37:27.654Z,3.97
2023-12-21T00:40:00.409Z,4.60
2023-12-21T00:42:33.865Z,6.83
2023-12-21T00:45:09.537Z,3.10
2023-12-21T00:47:42.263Z,4.90
2023-12-21T00:50:17.266Z,3.33
2023-12-21T00:52:49.956Z,3.33
2023-12-21T00:55:23.738Z,4.30
2023-12-21T00:57:58.817Z,3.93
2023-12-21T01:00:32.756Z,4.93
2023-12-21T01:03:06.605Z,4.20
2023-12-21T01:05:39.274Z,3.87
2023-12-21T01:08:11.851Z,2.63
2023-12-21T01:10:44.604Z,4.07
2023-12-21T01:13:19.658Z,2.87
2023-12-21T01:15:54.908Z,2.70
2023-12-21T01:18:27.664Z,3.50
2023-12-21T01:21:00.459Z,5.00
2023-12-21T01:23:33.112Z,1.80
2023-12-21T01:26:06.575Z,1.97
2023-12-21T01:28:39.287Z,2.10
2023-12-21T01:31:15.218Z,2.30
2023-12-21T01:33:47.960Z,2.17
2023-12-21T01:36:21.518Z,2.20
2023-12-21T01:38:56.657Z,2.07
2023-12-21T01:41:29.466Z,1.70
2023-12-21T01:44:03.599Z,2.83
2023-12-21T01:46:37.860Z,2.37
2023-12-21T01:49:12.999Z,1.87
2023-12-21T01:51:45.900Z,3.27
2023-12-21T01:54:19.403Z,2.50
2023-12-21T01:56:52.243Z,1.60
2023-12-21T01:59:24.947Z,1.87
2023-12-21T02:01:59.056Z,2.00
2023-12-21T02:04:31.974Z,2.20
2023-12-21T02:07:04.813Z,1.50
2023-12-21T02:09:37.546Z,3.00
2023-12-21T02:12:10.241Z,4.03
2023-12-21T02:14:42.848Z,1.50
2023-12-21T02:17:21.103Z,2.07
2023-12-21T02:19:54.004Z,2.20
2023-12-21T02:22:29.361Z,2.57
2023-12-21T02:25:04.471Z,1.27
2023-12-21T02:27:37.165Z,1.73
2023-12-21T02:30:10.211Z,1.37
2023-12-21T02:32:45.517Z,1.60
2023-12-21T02:35:25.667Z,1.40
2023-12-21T02:37:59.229Z,2.47
2023-12-21T02:40:33.283Z,1.83
2023-12-21T02:43:06.331Z,1.60
2023-12-21T02:45:38.969Z,1.67
2023-12-21T02:48:11.956Z,2.07
2023-12-21T02:50:44.581Z,2.10
2023-12-21T02:53:17.157Z,1.47
2023-12-21T02:55:51.198Z,2.50
2023-12-21T02:58:25.012Z,2.10
2023-12-21T03:00:57.767Z,0.90
2023-12-21T03:03:32.823Z,1.70
2023-12-21T03:06:05.587Z,2.50
2023-12-21T03:08:38.502Z,2.17
2023-12-21T03:11:19.657Z,1.50
2023-12-21T03:13:52.327Z,1.77
2023-12-21T03:16:24.957Z,1.70
2023-12-21T03:19:00.762Z,2.00
2023-12-21T03:21:33.559Z,1.57
2023-12-21T03:24:06.544Z,2.03
2023-12-21T03:26:40.698Z,3.43
2023-12-21T03:29:13.424Z,1.73
2023-12-21T03:31:46.206Z,2.07
2023-12-21T03:34:19.077Z,1.40
2023-12-21T03:36:51.912Z,2.30
2023-12-21T03:39:24.943Z,1.80
2023-12-21T03:41:59.302Z,3.37
2023-12-21T03:44:31.940Z,2.17
2023-12-21T03:47:04.636Z,1.77
2023-12-21T03:49:40.226Z,2.33
2023-12-21T03:52:13.058Z,2.60
2023-12-21T03:54:45.719Z,3.60
2023-12-21T03:57:22.399Z,2.30
2023-12-21T03:59:55.916Z,2.87
2023-12-21T04:02:28.650Z,5.13
2023-12-21T04:05:01.532Z,3.33
2023-12-21T04:07:35.211Z,2.47
2023-12-21T04:10:10.039Z,3.50
2023-12-21T04:12:44.010Z,2.50
2023-12-21T04:15:17.718Z,2.27
2023-12-21T04:17:50.462Z,2.23
2023-12-21T04:20:23.272Z,2.47
2023-12-21T04:22:55.841Z,2.77
2023-12-21T04:25:28.481Z,2.13
2023-12-21T04:28:03.718Z,1.97
2023-12-21T04:30:36.431Z,2.80
2023-12-21T04:33:09.473Z,2.40
2023-12-21T04:35:45.107Z,2.63
2023-12-21T04:38:18.719Z,3.00
2023-12-21T04:40:59.409Z,2.13
2023-12-21T04:43:33.433Z,2.53
2023-12-21T04:46:06.167Z,3.10
2023-12-21T04:48:39.006Z,2.47
2023-12-21T04:51:15.672Z,2.73
2023-12-21T04:53:48.273Z,2.50
2023-12-21T04:56:23.860Z,2.20
2023-12-21T04:58:58.821Z,2.10
2023-12-21T05:01:31.636Z,2.43
2023-12-21T05:04:04.792Z,2.20
2023-12-21T05:06:37.548Z,2.60
2023-12-21T05:09:13.332Z,2.83
2023-12-21T05:11:45.971Z,2.67
2023-12-21T05:14:19.982Z,4.83
2023-12-21T05:16:52.600Z,2.77
2023-12-21T05:19:25.331Z,2.50
2023-12-21T05:22:00.477Z,2.50
2023-12-21T05:24:33.209Z,2.50
2023-12-21T05:27:10.483Z,2.50
2023-12-21T05:29:44.498Z,2.57
2023-12-21T05:32:21.664Z,3.20
2023-12-21T05:34:57.793Z,2.20
2023-12-21T05:37:32.420Z,2.40
2023-12-21T05:40:08.739Z,2.53
2023-12-21T05:42:41.921Z,2.17
2023-12-21T05:45:16.037Z,2.23
2023-12-21T05:47:48.592Z,2.13
2023-12-21T05:50:22.153Z,2.47
2023-12-21T05:52:55.978Z,3.33
2023-12-21T05:55:28.597Z,1.67
2023-12-21T05:58:03.859Z,2.30
2023-12-21T06:00:39.279Z,2.57
2023-12-21T06:03:15.400Z,2.13
2023-12-21T06:05:50.979Z,1.43
2023-12-21T06:08:23.753Z,2.90
2023-12-21T06:10:56.382Z,2.47
2023-12-21T06:13:34.234Z,1.80
2023-12-21T06:16:12.878Z,2.37
2023-12-21T06:18:46.824Z,2.33
2023-12-21T06:21:19.615Z,1.90
2023-12-21T06:23:53.521Z,1.57
2023-12-21T06:26:26.232Z,2.00
2023-12-21T06:28:58.874Z,1.97
2023-12-21T06:31:35.950Z,1.97
2023-12-21T06:34:09.135Z,2.27
2023-12-21T06:36:42.194Z,2.90
2023-12-21T06:39:14.871Z,2.00
2023-12-21T06:41:50.070Z,2.17
2023-12-21T06:44:22.848Z,2.77
2023-12-21T06:46:57.510Z,2.13
2023-12-21T06:49:30.561Z,3.57
2023-12-21T06:52:03.303Z,1.90
2023-12-21T06:54:36.158Z,2.30
2023-12-21T06:57:16.311Z,2.50
2023-12-21T06:59:52.925Z,4.20
2023-12-21T07:02:26.893Z,7.43
2023-12-21T07:05:00.898Z,2.97
2023-12-21T07:07:33.624Z,2.40
2023-12-21T07:10:06.736Z,2.50
2023-12-21T07:12:41.108Z,2.20
2023-12-21T07:15:13.933Z,3.90
2023-12-21T07:17:51.611Z,3.77
2023-12-21T07:20:26.570Z,1.70
2023-12-21T07:23:00.033Z,1.87
2023-12-21T07:25:32.741Z,2.60
2023-12-21T07:28:05.887Z,2.23
2023-12-21T07:30:38.793Z,2.30
2023-12-21T07:33:16.699Z,2.00
2023-12-21T07:35:49.551Z,2.00
2023-12-21T07:38:23.028Z,1.77
2023-12-21T07:40:55.870Z,1.90
2023-12-21T07:43:29.073Z,1.90
2023-12-21T07:46:01.814Z,1.80
2023-12-21T07:48:35.876Z,2.20
2023-12-21T07:51:08.748Z,1.60
2023-12-21T07:53:42.265Z,1.90
2023-12-21T07:56:17.567Z,1.87
2023-12-21T07:58:50.242Z,2.10
2023-12-21T08:01:22.890Z,1.87
2023-12-21T08:04:04.532Z,2.57
2023-12-21T08:06:42.468Z,3.07
2023-12-21T08:09:16.605Z,2.73
2023-12-21T08:11:49.273Z,1.80
2023-12-21T08:14:27.858Z,2.20
2023-12-21T08:17:04.172Z,2.87
2023-12-21T08:19:38.442Z,3.00
2023-12-21T08:22:11.322Z,2.47
2023-12-21T08:24:44.875Z,2.97
2023-12-21T08:27:17.560Z,2.07
2023-12-21T08:29:50.233Z,1.90
2023-12-21T08:32:22.958Z,2.23
2023-12-21T08:34:59.571Z,2.17
2023-12-21T08:37:32.387Z,2.30
2023-12-21T08:40:05.500Z,2.53
2023-12-21T08:42:38.158Z,1.57
2023-12-21T08:45:11.669Z,2.40
2023-12-21T08:47:45.148Z,1.50
2023-12-21T08:50:20.757Z,1.30
2023-12-21T08:52:55.903Z,1.20
2023-12-21T08:55:29.698Z,1.30
2023-12-21T08:58:05.543Z,2.30
2023-12-21T09:00:39.101Z,1.30
2023-12-21T09:03:21.851Z,1.50
2023-12-21T09:05:55.983Z,2.50
2023-12-21T09:08:28.643Z,1.20
2023-12-21T09:11:01.320Z,1.23
2023-12-21T09:13:34.060Z,2.10
2023-12-21T09:16:07.334Z,2.50
2023-12-21T09:18:43.354Z,1.97
2023-12-21T09:21:17.696Z,4.10
2023-12-21T09:23:50.329Z,1.40
2023-12-21T09:26:27.522Z,1.77
2023-12-21T09:29:05.207Z,1.70
2023-12-21T09:31:38.038Z,1.33
2023-12-21T09:34:12.353Z,1.87
2023-12-21T09:36:47.237Z,0.90
2023-12-21T09:39:21.029Z,1.40
2023-12-21T09:42:00.377Z,1.10
2023-12-21T09:44:36.638Z,0.90
2023-12-21T09:47:12.795Z,1.67
2023-12-21T09:49:46.749Z,1.30
2023-12-21T09:52:23.741Z,0.90
2023-12-21T09:54:56.372Z,0.80
2023-12-21T09:57:29.000Z,2.60
2023-12-21T10:00:03.344Z,1.07
2023-12-21T10:02:36.160Z,0.80
2023-12-21T10:05:09.454Z,1.20
2023-12-21T10:07:44.758Z,1.43
2023-12-21T10:10:18.413Z,0.70
2023-12-21T10:12:51.449Z,1.13
2023-12-21T10:15:24.335Z,0.83
2023-12-21T10:17:57.138Z,1.27
2023-12-21T10:20:29.804Z,0.90
2023-12-21T10:23:04.453Z,0.57
2023-12-21T10:25:39.402Z,1.20
2023-12-21T10:28:12.440Z,1.40
2023-12-21T10:30:45.199Z,1.00
2023-12-21T10:33:18.215Z,1.30
2023-12-21T10:35:53.381Z,1.03
2023-12-21T10:38:29.947Z,0.90
2023-12-21T10:41:07.080Z,1.37
2023-12-21T10:43:40.066Z,1.37
2023-12-21T10:46:13.603Z,1.90
2023-12-21T10:48:46.711Z,0.80
2023-12-21T10:51:21.139Z,0.70
2023-12-21T10:53:55.955Z,0.80
2023-12-21T10:56:28.972Z,1.30
2023-12-21T10:59:03.304Z,1.00
2023-12-21T11:01:39.703Z,1.10
2023-12-21T11:04:13.358Z,2.93
2023-12-21T11:06:48.791Z,2.27
2023-12-21T11:09:23.845Z,0.97
2023-12-21T11:11:58.755Z,1.93
2023-12-21T11:14:31.595Z,0.80
2023-12-21T11:17:04.566Z,0.73
2023-12-21T11:19:41.985Z,1.20
2023-12-21T11:22:15.019Z,1.00
2023-12-21T11:24:49.037Z,1.13
2023-12-21T11:27:22.192Z,1.77
2023-12-21T11:29:54.997Z,2.13
2023-12-21T11:32:29.474Z,1.03
2023-12-21T11:35:02.723Z,1.10
2023-12-21T11:37:36.087Z,1.20
2023-12-21T11:40:12.466Z,1.03
2023-12-21T11:42:47.050Z,0.80
2023-12-21T11:45:24.525Z,1.03
2023-12-21T11:47:57.213Z,0.90
2023-12-21T11:50:31.973Z,0.70
2023-12-21T11:53:14.661Z,0.90
2023-12-21T11:55:52.935Z,1.43
2023-12-21T11:58:27.385Z,2.50
2023-12-21T12:01:04.006Z,0.93
2023-12-21T12:03:37.742Z,1.90
2023-12-21T12:06:10.380Z,1.87
2023-12-21T12:08:44.273Z,2.43
2023-12-21T12:11:20.142Z,2.37
2023-12-21T12:13:53.028Z,0.90
2023-12-21T12:16:25.707Z,1.97
2023-12-21T12:18:59.117Z,1.60
2023-12-21T12:21:33.068Z,1.00
2023-12-21T12:24:09.486Z,1.03
2023-12-21T12:26:43.489Z,1.17
2023-12-21T12:29:17.047Z,1.13
2023-12-21T12:31:51.124Z,1.43
2023-12-21T12:34:24.195Z,1.17
2023-12-21T12:36:57.254Z,1.10
2023-12-21T12:39:29.894Z,1.03
2023-12-21T12:42:07.930Z,1.00
2023-12-21T12:44:42.286Z,1.03
2023-12-21T12:47:15.116Z,1.20
2023-12-21T12:49:50.435Z,0.83
2023-12-21T12:52:24.097Z,0.93
2023-12-21T12:54:56.837Z,0.83
2023-12-21T12:57:33.595Z,1.67
2023-12-21T13:00:06.913Z,1.03
2023-12-21T13:02:42.224Z,0.80
2023-12-21T13:05:16.545Z,0.80
2023-12-21T13:07:49.632Z,0.80
2023-12-21T13:10:25.744Z,2.40
2023-12-21T13:13:00.261Z,0.97
2023-12-21T13:15:36.972Z,0.90
2023-12-21T13:18:12.230Z,1.63
2023-12-21T13:20:45.093Z,1.77
2023-12-21T13:23:17.848Z,0.80
2023-12-21T13:25:55.285Z,1.10
2023-12-21T13:28:30.369Z,1.00
2023-12-21T13:31:09.789Z,0.70
2023-12-21T13:33:42.633Z,2.70
2023-12-21T13:36:16.401Z,2.07
2023-12-21T13:38:49.330Z,0.80
2023-12-21T13:41:22.174Z,0.73
2023-12-21T13:43:56.416Z,1.20
2023-12-21T13:46:29.615Z,1.03
2023-12-21T13:49:03.647Z,0.97
2023-12-21T13:51:36.979Z,1.00
2023-12-21T13:54:11.288Z,1.00
2023-12-21T13:56:44.719Z,1.80
2023-12-21T13:59:19.203Z,1.27
2023-12-21T14:01:52.008Z,1.73
2023-12-21T14:04:24.876Z,0.63
2023-12-21T14:06:59.535Z,2.20
2023-12-21T14:09:33.824Z,0.97
2023-12-21T14:12:07.012Z,1.00
2023-12-21T14:14:41.093Z,0.60
2023-12-21T14:17:15.009Z,0.80
2023-12-21T14:19:47.720Z,1.47
2023-12-21T14:22:23.255Z,0.90
2023-12-21T14:24:56.038Z,0.70
2023-12-21T14:27:28.811Z,0.80
2023-12-21T14:30:03.423Z,1.73
2023-12-21T14:32:38.372Z,1.80
2023-12-21T14:35:11.385Z,0.83
2023-12-21T14:37:44.206Z,0.50
2023-12-21T14:40:17.041Z,0.57
2023-12-21T14:42:50.076Z,1.20
2023-12-21T14:45:24.870Z,2.47
2023-12-21T14:47:57.730Z,0.70
2023-12-21T14:50:30.849Z,0.70
2023-12-21T14:53:06.328Z,1.03
2023-12-21T14:55:42.276Z,0.80
2023-12-21T14:58:16.046Z,0.50
2023-12-21T15:00:50.227Z,1.90
2023-12-21T15:03:25.930Z,1.33
2023-12-21T15:05:58.930Z,1.23
2023-12-21T15:08:31.820Z,0.70
2023-12-21T15:11:05.734Z,1.07
2023-12-21T15:13:39.444Z,0.67
2023-12-21T15:16:13.598Z,0.93
2023-12-21T15:18:46.379Z,0.70
2023-12-21T15:21:19.857Z,0.60
2023-12-21T15:23:55.024Z,1.00
2023-12-21T15:26:27.726Z,0.77
2023-12-21T15:29:09.868Z,0.70
2023-12-21T15:31:44.039Z,1.20
2023-12-21T15:34:19.307Z,1.63
2023-12-21T15:36:52.044Z,8.80
2023-12-21T15:39:24.920Z,1.43
2023-12-21T15:41:58.719Z,2.37
2023-12-21T15:44:31.624Z,1.30
2023-12-21T15:47:05.767Z,1.90
2023-12-21T15:49:38.557Z,1.23
2023-12-21T15:52:13.405Z,0.80
2023-12-21T15:54:46.142Z,1.70
2023-12-21T15:57:19.131Z,3.73
2023-12-21T15:59:52.842Z,2.07
2023-12-21T16:02:27.027Z,2.13
2023-12-21T16:04:59.646Z,3.57
2023-12-21T16:07:32.912Z,3.63
2023-12-21T16:10:08.842Z,3.30
2023-12-21T16:12:43.311Z,4.63
2023-12-21T16:15:16.062Z,3.13
2023-12-21T16:17:50.224Z,5.27
2023-12-21T16:20:25.329Z,2.00
2023-12-21T16:22:58.082Z,4.57
2023-12-21T16:25:30.819Z,2.03
2023-12-21T16:28:05.037Z,4.07
2023-12-21T16:30:39.699Z,4.07
2023-12-21T16:33:14.204Z,3.70
2023-12-21T16:35:47.597Z,5.90
2023-12-21T16:38:20.419Z,3.20
2023-12-21T16:40:53.964Z,3.67
2023-12-21T16:43:26.635Z,4.57
2023-12-21T16:45:59.381Z,4.13
2023-12-21T16:48:33.591Z,1.77
2023-12-21T16:51:09.586Z,5.27
2023-12-21T16:53:43.206Z,5.67
2023-12-21T16:56:15.799Z,5.50
2023-12-21T16:58:49.037Z,2.77
2023-12-21T17:01:21.865Z,5.17
2023-12-21T17:03:59.301Z,3.20
2023-12-21T17:06:32.243Z,4.17
2023-12-21T17:09:05.408Z,2.17
2023-12-21T17:11:38.565Z,4.47
2023-12-21T17:14:11.149Z,9.90
2023-12-21T17:16:46.252Z,5.67
2023-12-21T17:19:20.865Z,1.97
2023-12-21T17:21:53.643Z,5.03
2023-12-21T17:24:26.386Z,4.87
2023-12-21T17:26:59.028Z,5.23
2023-12-21T17:29:31.700Z,4.30
2023-12-21T17:32:06.158Z,4.47
2023-12-21T17:34:40.806Z,5.80
2023-12-21T17:37:14.262Z,3.30
2023-12-21T17:39:47.252Z,1.47
2023-12-21T17:42:19.869Z,3.97
2023-12-21T17:44:52.430Z,3.13
2023-12-21T17:47:24.999Z,4.07
2023-12-21T17:49:59.888Z,5.03
2023-12-21T17:52:34.342Z,4.50
2023-12-21T17:55:07.627Z,4.90
2023-12-21T17:57:40.375Z,5.00
2023-12-21T18:00:13.413Z,7.17
2023-12-21T18:02:48.320Z,10.47
2023-12-21T18:05:22.264Z,10.33
2023-12-21T18:07:54.860Z,5.67
2023-12-21T18:10:27.682Z,9.90
2023-12-21T18:13:00.502Z,5.30
2023-12-21T18:15:34.069Z,10.47
2023-12-21T18:18:21.508Z,12.87
2023-12-21T18:21:03.881Z,10.30
2023-12-21T18:23:36.594Z,12.83
2023-12-21T18:26:11.859Z,8.73
2023-12-21T18:28:44.543Z,8.40
2023-12-21T18:31:19.060Z,7.90
2023-12-21T18:33:53.271Z,8.00
2023-12-21T18:36:27.335Z,5.67
2023-12-21T18:39:00.958Z,15.03
2023-12-21T18:41:33.777Z,11.03
2023-12-21T18:44:07.402Z,13.50
2023-12-21T18:46:41.509Z,9.97
2023-12-21T18:49:14.370Z,9.00
2023-12-21T18:51:55.279Z,13.00
2023-12-21T18:54:33.762Z,14.23
2023-12-21T18:57:06.724Z,11.70
2023-12-21T18:59:40.437Z,11.87
2023-12-21T19:02:14.827Z,10.80
2023-12-21T19:04:47.682Z,13.37
2023-12-21T19:07:21.834Z,11.10
2023-12-21T19:09:57.412Z,9.67
2023-12-21T19:12:32.070Z,9.67
2023-12-21T19:15:04.929Z,14.07
2023-12-21T19:17:37.781Z,7.60
2023-12-21T19:20:10.750Z,8.43
2023-12-21T19:22:44.932Z,7.10
2023-12-21T19:25:17.824Z,10.00
2023-12-21T19:27:50.682Z,7.00
2023-12-21T19:30:23.316Z,5.03
2023-12-21T19:32:56.093Z,8.70
2023-12-21T19:35:31.966Z,5.87
2023-12-21T19:38:08.086Z,7.10
2023-12-21T19:40:41.328Z,13.13
2023-12-21T19:43:14.042Z,8.23
2023-12-21T19:45:46.883Z,9.40
2023-12-21T19:48:19.640Z,6.83
2023-12-21T19:50:54.371Z,10.13
2023-12-21T19:53:28.429Z,9.33
2023-12-21T19:56:03.977Z,12.13
2023-12-21T19:58:36.547Z,8.67
2023-12-21T20:01:09.181Z,12.03
2023-12-21T20:03:41.835Z,8.80
2023-12-21T20:06:14.640Z,11.37
2023-12-21T20:08:51.039Z,16.33
2023-12-21T20:11:23.720Z,5.97
2023-12-21T20:13:56.555Z,7.27
2023-12-21T20:16:29.184Z,13.50
2023-12-21T20:19:01.981Z,7.07
2023-12-21T20:21:34.682Z,4.17
2023-12-21T20:24:08.891Z,9.13
2023-12-21T20:26:43.807Z,12.43
2023-12-21T20:29:16.495Z,6.80
2023-12-21T20:31:49.239Z,8.63
2023-12-21T20:34:22.008Z,12.57
2023-12-21T20:36:57.040Z,16.80
2023-12-21T20:39:31.047Z,6.63
2023-12-21T20:42:03.704Z,17.23
2023-12-21T20:44:36.323Z,9.83
2023-12-21T20:47:08.966Z,4.30
2023-12-21T20:49:43.372Z,11.47
2023-12-21T20:52:16.049Z,10.83
2023-12-21T20:54:52.411Z,11.33
2023-12-21T20:57:25.318Z,6.77
2023-12-21T20:59:57.984Z,12.50
2023-12-21T21:02:30.658Z,7.33
2023-12-21T21:05:04.345Z,11.63
2023-12-21T21:07:37.070Z,7.87
2023-12-21T21:10:11.261Z,11.03
2023-12-21T21:12:44.080Z,11.77
2023-12-21T21:15:17.075Z,13.73
2023-12-21T21:17:50.011Z,9.13
2023-12-21T21:20:22.896Z,8.57
2023-12-21T21:22:55.722Z,12.20
2023-12-21T21:25:29.824Z,7.47
2023-12-21T21:28:02.548Z,8.47
2023-12-21T21:30:56.070Z,8.73
2023-12-21T21:33:27.941Z,10.13
2023-12-21T21:36:02.410Z,9.27
2023-12-21T21:38:35.886Z,6.17
2023-12-21T21:41:15.841Z,4.47
2023-12-21T21:43:48.525Z,8.30
2023-12-21T21:46:23.628Z,5.00
2023-12-21T21:48:56.377Z,9.23
2023-12-21T21:51:29.172Z,12.20
2023-12-21T21:54:01.856Z,13.67
2023-12-21T21:56:38.916Z,9.57
2023-12-21T21:59:11.798Z,5.83
2023-12-21T22:01:46.212Z,11.53
2023-12-21T22:04:20.042Z,9.07
2023-12-21T22:06:52.816Z,5.70
2023-12-21T22:09:25.533Z,8.83
2023-12-21T22:11:59.559Z,7.10
2023-12-21T22:14:32.197Z,6.27
2023-12-21T22:17:05.883Z,8.20
2023-12-21T22:19:41.485Z,6.37
2023-12-21T22:22:14.188Z,9.37
2023-12-21T22:24:46.872Z,8.37
2023-12-21T22:27:23.368Z,6.37
2023-12-21T22:29:56.319Z,2.03
2023-12-21T22:32:28.945Z,3.33
2023-12-21T22:35:04.116Z,5.30
2023-12-21T22:37:39.289Z,6.03
2023-12-21T22:40:13.478Z,4.43
2023-12-21T22:42:48.145Z,7.40
2023-12-21T22:45:26.186Z,4.40
2023-12-21T22:47:58.863Z,9.30
2023-12-21T22:50:31.713Z,14.20
2023-12-21T22:53:04.666Z,4.50
2023-12-21T22:55:37.334Z,6.47
2023-12-21T22:58:11.463Z,6.43
2023-12-21T23:00:49.978Z,4.93
2023-12-21T23:03:22.609Z,9.33
2023-12-21T23:05:55.356Z,6.13
2023-12-21T23:08:31.262Z,8.97
2023-12-21T23:11:03.945Z,5.77
2023-12-21T23:13:40.264Z,6.20
2023-12-21T23:16:13.088Z,16.53
2023-12-21T23:18:45.827Z,9.40
2023-12-21T23:21:21.191Z,5.17
2023-12-21T23:23:53.747Z,9.43
2023-12-21T23:26:26.576Z,7.70
2023-12-21T23:29:00.717Z,9.90
2023-12-21T23:31:33.534Z,7.13
2023-12-21T23:34:06.230Z,7.43
2023-12-21T23:36:42.707Z,6.30
2023-12-21T23:39:15.593Z,11.63
2023-12-21T23:41:48.232Z,14.67
2023-12-21T23:44:22.337Z,8.10
2023-12-21T23:46:55.210Z,11.27
2023-12-21T23:49:31.695Z,7.37
2023-12-21T23:52:07.654Z,8.10
2023-12-21T23:54:40.408Z,3.10
2023-12-21T23:57:13.844Z,2.97
2023-12-21T23:59:48.091Z,5.20
